sensor_id;sensor_type;location;lat;lon;timestamp;temperature;humidity
21149;DHT22;10732;51.472;6.466;2023-07-08T00:00:21;21.00;1.00
21149;DHT22;10732;51.472;6.466;2023-07-08T00:02:47;20.90;1.00
21149;DHT22;10732;51.472;6.466;2023-07-08T00:05:14;20.90;1.00
21149;DHT22;10732;51.472;6.466;2023-07-08T00:07:41;20.90;1.00
21149;DHT22;10732;51.472;6.466;2023-07-08T00:12:42;20.90;1.00
21149;DHT22;10732;51.472;6.466;2023-07-08T00:15:09;20.90;1.00
21149;DHT22;10732;51.472;6.466;2023-07-08T00:17:46;20.90;1.00
21149;DHT22;10732;51.472;6.466;2023-07-08T00:22:57;20.90;1.00
21149;DHT22;10732;51.472;6.466;2023-07-08T00:25:29;21.00;1.00
21149;DHT22;10732;51.472;6.466;2023-07-08T00:27:58;20.90;1.00
21149;DHT22;10732;51.472;6.466;2023-07-08T00:32:51;20.80;1.00
21149;DHT22;10732;51.472;6.466;2023-07-08T00:35:34;20.80;1.00
21149;DHT22;10732;51.472;6.466;2023-07-08T00:38:00;20.80;1.00
21149;DHT22;10732;51.472;6.466;2023-07-08T00:40:37;20.80;1.00
21149;DHT22;10732;51.472;6.466;2023-07-08T00:43:06;20.90;1.00
21149;DHT22;10732;51.472;6.466;2023-07-08T00:45:42;20.80;1.00
21149;DHT22;10732;51.472;6.466;2023-07-08T00:48:25;20.80;1.00
21149;DHT22;10732;51.472;6.466;2023-07-08T00:50:54;20.80;1.00
21149;DHT22;10732;51.472;6.466;2023-07-08T00:53:35;20.80;1.00
21149;DHT22;10732;51.472;6.466;2023-07-08T00:56:04;20.80;1.00
21149;DHT22;10732;51.472;6.466;2023-07-08T00:58:52;20.80;1.00
21149;DHT22;10732;51.472;6.466;2023-07-08T01:01:19;20.80;1.00
21149;DHT22;10732;51.472;6.466;2023-07-08T01:03:55;20.80;1.00
21149;DHT22;10732;51.472;6.466;2023-07-08T01:06:24;20.70;1.00
21149;DHT22;10732;51.472;6.466;2023-07-08T01:09:00;20.80;1.00
21149;DHT22;10732;51.472;6.466;2023-07-08T01:11:31;20.80;1.00
21149;DHT22;10732;51.472;6.466;2023-07-08T01:13:58;20.80;1.00
21149;DHT22;10732;51.472;6.466;2023-07-08T01:16:25;20.80;1.00
21149;DHT22;10732;51.472;6.466;2023-07-08T01:18:51;20.80;1.00
21149;DHT22;10732;51.472;6.466;2023-07-08T01:24:27;20.70;1.00
21149;DHT22;10732;51.472;6.466;2023-07-08T01:26:54;20.60;1.00
21149;DHT22;10732;51.472;6.466;2023-07-08T01:29:19;20.60;10.90
21149;DHT22;10732;51.472;6.466;2023-07-08T01:31:45;20.60;38.50
21149;DHT22;10732;51.472;6.466;2023-07-08T01:34:14;20.50;99.90
21149;DHT22;10732;51.472;6.466;2023-07-08T01:36:44;20.50;99.90
21149;DHT22;10732;51.472;6.466;2023-07-08T01:39:17;20.50;95.40
21149;DHT22;10732;51.472;6.466;2023-07-08T01:41:43;20.40;99.90
21149;DHT22;10732;51.472;6.466;2023-07-08T01:44:35;20.30;99.90
21149;DHT22;10732;51.472;6.466;2023-07-08T01:47:11;20.30;99.90
21149;DHT22;10732;51.472;6.466;2023-07-08T01:49:39;20.40;80.50
21149;DHT22;10732;51.472;6.466;2023-07-08T01:52:07;20.30;99.90
21149;DHT22;10732;51.472;6.466;2023-07-08T01:54:32;20.20;99.90
21149;DHT22;10732;51.472;6.466;2023-07-08T01:56:58;20.20;99.90
21149;DHT22;10732;51.472;6.466;2023-07-08T01:59:24;20.20;99.90
21149;DHT22;10732;51.472;6.466;2023-07-08T02:01:50;20.20;99.90
21149;DHT22;10732;51.472;6.466;2023-07-08T02:04:24;20.30;99.90
21149;DHT22;10732;51.472;6.466;2023-07-08T02:06:54;20.30;99.90
21149;DHT22;10732;51.472;6.466;2023-07-08T02:09:20;20.20;99.90
21149;DHT22;10732;51.472;6.466;2023-07-08T02:11:46;20.20;99.90
21149;DHT22;10732;51.472;6.466;2023-07-08T02:14:11;20.10;99.90
21149;DHT22;10732;51.472;6.466;2023-07-08T02:16:37;20.00;99.90
21149;DHT22;10732;51.472;6.466;2023-07-08T02:19:03;19.80;1.00
21149;DHT22;10732;51.472;6.466;2023-07-08T02:21:28;19.70;1.00
21149;DHT22;10732;51.472;6.466;2023-07-08T02:23:56;19.70;1.00
21149;DHT22;10732;51.472;6.466;2023-07-08T02:26:22;19.70;1.00
21149;DHT22;10732;51.472;6.466;2023-07-08T02:28:47;19.70;1.00
21149;DHT22;10732;51.472;6.466;2023-07-08T02:31:13;19.80;1.00
21149;DHT22;10732;51.472;6.466;2023-07-08T02:33:38;19.80;1.00
21149;DHT22;10732;51.472;6.466;2023-07-08T02:36:04;19.80;1.00
21149;DHT22;10732;51.472;6.466;2023-07-08T02:38:29;19.70;1.00
21149;DHT22;10732;51.472;6.466;2023-07-08T02:40:55;19.70;1.00
21149;DHT22;10732;51.472;6.466;2023-07-08T02:43:21;19.70;1.00
21149;DHT22;10732;51.472;6.466;2023-07-08T02:45:52;19.60;1.00
21149;DHT22;10732;51.472;6.466;2023-07-08T02:48:20;19.40;1.00
21149;DHT22;10732;51.472;6.466;2023-07-08T02:50:46;19.40;1.00
21149;DHT22;10732;51.472;6.466;2023-07-08T02:53:12;19.40;1.00
21149;DHT22;10732;51.472;6.466;2023-07-08T02:55:39;19.30;1.00
21149;DHT22;10732;51.472;6.466;2023-07-08T02:58:05;19.40;1.00
21149;DHT22;10732;51.472;6.466;2023-07-08T03:00:30;19.40;1.00
21149;DHT22;10732;51.472;6.466;2023-07-08T03:02:56;19.40;1.00
21149;DHT22;10732;51.472;6.466;2023-07-08T03:05:21;19.30;1.00
21149;DHT22;10732;51.472;6.466;2023-07-08T03:07:47;19.30;1.00
21149;DHT22;10732;51.472;6.466;2023-07-08T03:10:12;19.20;86.00
21149;DHT22;10732;51.472;6.466;2023-07-08T03:12:38;19.10;93.70
21149;DHT22;10732;51.472;6.466;2023-07-08T03:15:04;19.10;12.60
21149;DHT22;10732;51.472;6.466;2023-07-08T03:17:30;19.10;29.00
21149;DHT22;10732;51.472;6.466;2023-07-08T03:19:56;19.10;1.00
21149;DHT22;10732;51.472;6.466;2023-07-08T03:22:21;19.10;1.00
21149;DHT22;10732;51.472;6.466;2023-07-08T03:24:47;19.10;4.70
21149;DHT22;10732;51.472;6.466;2023-07-08T03:27:13;19.10;1.00
21149;DHT22;10732;51.472;6.466;2023-07-08T03:29:39;19.10;1.00
21149;DHT22;10732;51.472;6.466;2023-07-08T03:32:07;19.10;1.00
21149;DHT22;10732;51.472;6.466;2023-07-08T03:34:34;19.10;1.00
21149;DHT22;10732;51.472;6.466;2023-07-08T03:36:59;19.00;1.00
21149;DHT22;10732;51.472;6.466;2023-07-08T03:39:25;19.10;1.00
21149;DHT22;10732;51.472;6.466;2023-07-08T03:41:51;19.10;1.00
21149;DHT22;10732;51.472;6.466;2023-07-08T03:44:17;19.10;99.90
21149;DHT22;10732;51.472;6.466;2023-07-08T03:46:43;19.10;1.00
21149;DHT22;10732;51.472;6.466;2023-07-08T03:49:10;19.00;1.00
21149;DHT22;10732;51.472;6.466;2023-07-08T03:51:38;19.00;1.00
21149;DHT22;10732;51.472;6.466;2023-07-08T03:54:06;19.00;1.00
21149;DHT22;10732;51.472;6.466;2023-07-08T03:56:34;19.00;1.00
21149;DHT22;10732;51.472;6.466;2023-07-08T03:59:00;19.00;99.90
21149;DHT22;10732;51.472;6.466;2023-07-08T04:01:26;19.10;99.90
21149;DHT22;10732;51.472;6.466;2023-07-08T04:03:53;19.20;92.30
21149;DHT22;10732;51.472;6.466;2023-07-08T04:06:19;19.10;99.90
21149;DHT22;10732;51.472;6.466;2023-07-08T04:08:45;19.10;99.90
21149;DHT22;10732;51.472;6.466;2023-07-08T04:11:13;19.00;99.90
21149;DHT22;10732;51.472;6.466;2023-07-08T04:13:39;19.10;99.90
21149;DHT22;10732;51.472;6.466;2023-07-08T04:16:05;19.00;99.90
21149;DHT22;10732;51.472;6.466;2023-07-08T04:18:32;19.00;1.00
21149;DHT22;10732;51.472;6.466;2023-07-08T04:20:58;19.00;1.00
21149;DHT22;10732;51.472;6.466;2023-07-08T04:23:24;19.10;1.00
21149;DHT22;10732;51.472;6.466;2023-07-08T04:25:53;19.10;1.00
21149;DHT22;10732;51.472;6.466;2023-07-08T04:28:19;19.10;99.90
21149;DHT22;10732;51.472;6.466;2023-07-08T04:30:45;19.20;99.90
21149;DHT22;10732;51.472;6.466;2023-07-08T04:33:12;19.30;1.00
21149;DHT22;10732;51.472;6.466;2023-07-08T04:35:39;19.40;1.00
21149;DHT22;10732;51.472;6.466;2023-07-08T04:38:19;19.50;99.90
21149;DHT22;10732;51.472;6.466;2023-07-08T04:40:47;19.50;93.10
21149;DHT22;10732;51.472;6.466;2023-07-08T04:43:12;19.70;1.00
21149;DHT22;10732;51.472;6.466;2023-07-08T04:45:39;19.90;1.00
21149;DHT22;10732;51.472;6.466;2023-07-08T04:48:06;20.00;1.00
21149;DHT22;10732;51.472;6.466;2023-07-08T04:50:42;20.10;1.00
21149;DHT22;10732;51.472;6.466;2023-07-08T04:53:09;20.10;1.00
21149;DHT22;10732;51.472;6.466;2023-07-08T04:55:42;20.10;1.00
21149;DHT22;10732;51.472;6.466;2023-07-08T04:58:09;20.00;1.00
21149;DHT22;10732;51.472;6.466;2023-07-08T05:00:34;20.30;1.00
21149;DHT22;10732;51.472;6.466;2023-07-08T05:03:00;20.70;1.00
21149;DHT22;10732;51.472;6.466;2023-07-08T05:05:26;20.90;1.00
21149;DHT22;10732;51.472;6.466;2023-07-08T05:07:52;20.60;1.00
21149;DHT22;10732;51.472;6.466;2023-07-08T05:10:18;20.40;1.00
21149;DHT22;10732;51.472;6.466;2023-07-08T05:12:44;20.50;1.00
21149;DHT22;10732;51.472;6.466;2023-07-08T05:15:11;20.90;1.00
21149;DHT22;10732;51.472;6.466;2023-07-08T05:17:38;21.50;1.00
21149;DHT22;10732;51.472;6.466;2023-07-08T05:20:08;22.50;99.90
21149;DHT22;10732;51.472;6.466;2023-07-08T05:22:34;23.60;99.90
21149;DHT22;10732;51.472;6.466;2023-07-08T05:25:00;24.70;1.00
21149;DHT22;10732;51.472;6.466;2023-07-08T05:27:26;25.00;1.00
21149;DHT22;10732;51.472;6.466;2023-07-08T05:29:53;26.40;1.00
21149;DHT22;10732;51.472;6.466;2023-07-08T05:32:19;26.80;1.00
21149;DHT22;10732;51.472;6.466;2023-07-08T05:34:45;27.00;1.00
21149;DHT22;10732;51.472;6.466;2023-07-08T05:37:11;27.70;1.00
21149;DHT22;10732;51.472;6.466;2023-07-08T05:39:37;28.00;1.00
21149;DHT22;10732;51.472;6.466;2023-07-08T05:42:03;27.10;1.00
21149;DHT22;10732;51.472;6.466;2023-07-08T05:44:31;26.30;1.00
21149;DHT22;10732;51.472;6.466;2023-07-08T05:46:57;25.60;1.00
21149;DHT22;10732;51.472;6.466;2023-07-08T05:49:22;25.00;1.00
21149;DHT22;10732;51.472;6.466;2023-07-08T05:51:48;24.50;1.00
21149;DHT22;10732;51.472;6.466;2023-07-08T05:54:14;24.10;1.00
21149;DHT22;10732;51.472;6.466;2023-07-08T05:56:40;23.40;1.00
21149;DHT22;10732;51.472;6.466;2023-07-08T05:59:06;23.50;1.00
21149;DHT22;10732;51.472;6.466;2023-07-08T06:01:32;23.50;1.00
21149;DHT22;10732;51.472;6.466;2023-07-08T06:03:58;23.30;1.00
21149;DHT22;10732;51.472;6.466;2023-07-08T06:06:25;23.20;1.00
21149;DHT22;10732;51.472;6.466;2023-07-08T06:08:50;23.10;1.00
21149;DHT22;10732;51.472;6.466;2023-07-08T06:11:16;23.50;1.00
21149;DHT22;10732;51.472;6.466;2023-07-08T06:13:42;24.20;1.00
21149;DHT22;10732;51.472;6.466;2023-07-08T06:16:07;25.60;1.00
21149;DHT22;10732;51.472;6.466;2023-07-08T06:18:33;26.80;1.00
21149;DHT22;10732;51.472;6.466;2023-07-08T06:20:59;27.60;1.00
21149;DHT22;10732;51.472;6.466;2023-07-08T06:23:25;28.70;1.00
21149;DHT22;10732;51.472;6.466;2023-07-08T06:25:51;29.40;99.90
21149;DHT22;10732;51.472;6.466;2023-07-08T06:28:17;30.00;99.90
21149;DHT22;10732;51.472;6.466;2023-07-08T06:30:43;31.00;99.90
21149;DHT22;10732;51.472;6.466;2023-07-08T06:33:09;30.20;99.90
21149;DHT22;10732;51.472;6.466;2023-07-08T06:35:36;30.00;99.90
21149;DHT22;10732;51.472;6.466;2023-07-08T06:38:02;30.70;99.90
21149;DHT22;10732;51.472;6.466;2023-07-08T06:40:28;31.30;99.90
21149;DHT22;10732;51.472;6.466;2023-07-08T06:42:53;30.20;99.90
21149;DHT22;10732;51.472;6.466;2023-07-08T06:45:18;29.20;99.90
21149;DHT22;10732;51.472;6.466;2023-07-08T06:47:44;28.70;99.90
21149;DHT22;10732;51.472;6.466;2023-07-08T06:50:11;28.10;99.90
21149;DHT22;10732;51.472;6.466;2023-07-08T06:52:37;27.50;99.90
21149;DHT22;10732;51.472;6.466;2023-07-08T06:55:06;27.70;99.90
21149;DHT22;10732;51.472;6.466;2023-07-08T06:57:33;28.20;99.90
21149;DHT22;10732;51.472;6.466;2023-07-08T06:59:58;29.50;99.90
21149;DHT22;10732;51.472;6.466;2023-07-08T07:02:25;29.60;99.90
21149;DHT22;10732;51.472;6.466;2023-07-08T07:04:51;29.10;99.90
21149;DHT22;10732;51.472;6.466;2023-07-08T07:07:16;28.20;99.90
21149;DHT22;10732;51.472;6.466;2023-07-08T07:09:42;27.30;99.90
21149;DHT22;10732;51.472;6.466;2023-07-08T07:12:07;27.10;99.90
21149;DHT22;10732;51.472;6.466;2023-07-08T07:14:33;26.80;99.90
21149;DHT22;10732;51.472;6.466;2023-07-08T07:16:59;26.40;99.90
21149;DHT22;10732;51.472;6.466;2023-07-08T07:19:25;26.50;99.90
21149;DHT22;10732;51.472;6.466;2023-07-08T07:21:51;28.30;99.90
21149;DHT22;10732;51.472;6.466;2023-07-08T07:24:17;29.90;99.90
21149;DHT22;10732;51.472;6.466;2023-07-08T07:26:42;31.10;99.90
21149;DHT22;10732;51.472;6.466;2023-07-08T07:29:08;32.90;99.90
21149;DHT22;10732;51.472;6.466;2023-07-08T07:31:34;33.50;99.90
21149;DHT22;10732;51.472;6.466;2023-07-08T07:34:00;34.60;99.90
21149;DHT22;10732;51.472;6.466;2023-07-08T07:36:26;34.60;99.90
21149;DHT22;10732;51.472;6.466;2023-07-08T07:38:52;35.00;99.90
21149;DHT22;10732;51.472;6.466;2023-07-08T07:41:18;34.50;99.90
21149;DHT22;10732;51.472;6.466;2023-07-08T07:43:43;35.10;99.90
21149;DHT22;10732;51.472;6.466;2023-07-08T07:46:09;35.50;99.90
21149;DHT22;10732;51.472;6.466;2023-07-08T07:48:36;35.80;99.90
21149;DHT22;10732;51.472;6.466;2023-07-08T07:51:02;35.30;99.90
21149;DHT22;10732;51.472;6.466;2023-07-08T07:53:28;35.00;99.50
21149;DHT22;10732;51.472;6.466;2023-07-08T07:56:01;34.80;98.50
21149;DHT22;10732;51.472;6.466;2023-07-08T07:58:28;33.90;90.60
21149;DHT22;10732;51.472;6.466;2023-07-08T08:00:53;34.00;79.30
21149;DHT22;10732;51.472;6.466;2023-07-08T08:03:20;33.80;86.50
21149;DHT22;10732;51.472;6.466;2023-07-08T08:05:46;33.80;78.80
21149;DHT22;10732;51.472;6.466;2023-07-08T08:08:12;34.50;65.00
21149;DHT22;10732;51.472;6.466;2023-07-08T08:10:37;34.60;74.80
21149;DHT22;10732;51.472;6.466;2023-07-08T08:13:03;35.40;69.20
21149;DHT22;10732;51.472;6.466;2023-07-08T08:15:29;35.40;89.40
21149;DHT22;10732;51.472;6.466;2023-07-08T08:17:55;36.30;50.10
21149;DHT22;10732;51.472;6.466;2023-07-08T08:20:25;35.60;49.50
21149;DHT22;10732;51.472;6.466;2023-07-08T08:22:51;34.80;38.70
21149;DHT22;10732;51.472;6.466;2023-07-08T08:25:18;35.40;47.40
21149;DHT22;10732;51.472;6.466;2023-07-08T08:27:44;35.30;40.10
21149;DHT22;10732;51.472;6.466;2023-07-08T08:30:10;35.70;41.30
21149;DHT22;10732;51.472;6.466;2023-07-08T08:32:36;35.70;37.80
21149;DHT22;10732;51.472;6.466;2023-07-08T08:35:02;36.20;38.40
21149;DHT22;10732;51.472;6.466;2023-07-08T08:37:28;36.50;34.60
21149;DHT22;10732;51.472;6.466;2023-07-08T08:39:53;36.40;32.60
21149;DHT22;10732;51.472;6.466;2023-07-08T08:42:28;37.20;36.60
21149;DHT22;10732;51.472;6.466;2023-07-08T08:44:56;36.90;35.20
21149;DHT22;10732;51.472;6.466;2023-07-08T08:47:44;36.90;25.60
21149;DHT22;10732;51.472;6.466;2023-07-08T08:52:54;37.30;19.90
21149;DHT22;10732;51.472;6.466;2023-07-08T08:55:22;36.80;18.70
21149;DHT22;10732;51.472;6.466;2023-07-08T09:00:26;36.90;13.00
21149;DHT22;10732;51.472;6.466;2023-07-08T09:03:08;36.70;6.40
21149;DHT22;10732;51.472;6.466;2023-07-08T09:05:34;36.10;5.30
21149;DHT22;10732;51.472;6.466;2023-07-08T09:08:31;35.90;4.30
21149;DHT22;10732;51.472;6.466;2023-07-08T09:13:56;36.20;1.00
21149;DHT22;10732;51.472;6.466;2023-07-08T09:16:43;36.20;1.00
21149;DHT22;10732;51.472;6.466;2023-07-08T09:19:13;35.60;1.00
21149;DHT22;10732;51.472;6.466;2023-07-08T09:21:49;36.00;1.00
21149;DHT22;10732;51.472;6.466;2023-07-08T09:26:53;36.40;1.00
21149;DHT22;10732;51.472;6.466;2023-07-08T09:29:22;35.10;1.00
21149;DHT22;10732;51.472;6.466;2023-07-08T09:31:48;34.20;1.00
21149;DHT22;10732;51.472;6.466;2023-07-08T09:34:17;33.20;1.00
21149;DHT22;10732;51.472;6.466;2023-07-08T09:36:46;34.60;1.00
21149;DHT22;10732;51.472;6.466;2023-07-08T09:39:17;35.90;1.00
21149;DHT22;10732;51.472;6.466;2023-07-08T09:41:45;36.60;1.00
21149;DHT22;10732;51.472;6.466;2023-07-08T09:44:26;37.30;1.00
21149;DHT22;10732;51.472;6.466;2023-07-08T09:46:55;37.20;1.00
21149;DHT22;10732;51.472;6.466;2023-07-08T09:49:22;36.50;1.00
21149;DHT22;10732;51.472;6.466;2023-07-08T09:51:49;37.60;1.00
21149;DHT22;10732;51.472;6.466;2023-07-08T09:54:23;37.60;1.00
21149;DHT22;10732;51.472;6.466;2023-07-08T09:56:54;37.70;1.00
21149;DHT22;10732;51.472;6.466;2023-07-08T09:59:23;37.80;99.90
21149;DHT22;10732;51.472;6.466;2023-07-08T10:01:49;37.50;99.90
21149;DHT22;10732;51.472;6.466;2023-07-08T10:04:14;37.30;98.70
21149;DHT22;10732;51.472;6.466;2023-07-08T10:06:43;37.00;98.90
21149;DHT22;10732;51.472;6.466;2023-07-08T10:09:14;37.00;99.90
21149;DHT22;10732;51.472;6.466;2023-07-08T10:11:51;37.80;99.90
21149;DHT22;10732;51.472;6.466;2023-07-08T10:14:34;38.40;1.00
21149;DHT22;10732;51.472;6.466;2023-07-08T10:17:00;38.70;1.00
21149;DHT22;10732;51.472;6.466;2023-07-08T10:19:26;39.50;1.00
21149;DHT22;10732;51.472;6.466;2023-07-08T10:25:28;38.20;1.00
21149;DHT22;10732;51.472;6.466;2023-07-08T10:33:24;37.90;1.00
21149;DHT22;10732;51.472;6.466;2023-07-08T10:42:09;38.00;1.00
21149;DHT22;10732;51.472;6.466;2023-07-08T10:50:16;37.90;1.00
21149;DHT22;10732;51.472;6.466;2023-07-08T10:53:10;37.30;1.00
21149;DHT22;10732;51.472;6.466;2023-07-08T11:01:07;37.90;1.00
21149;DHT22;10732;51.472;6.466;2023-07-08T11:06:50;37.70;1.00
21149;DHT22;10732;51.472;6.466;2023-07-08T11:09:42;37.60;1.00
21149;DHT22;10732;51.472;6.466;2023-07-08T11:15:05;37.90;1.00
21149;DHT22;10732;51.472;6.466;2023-07-08T11:17:51;37.40;1.00
21149;DHT22;10732;51.472;6.466;2023-07-08T11:23:32;38.40;1.00
21149;DHT22;10732;51.472;6.466;2023-07-08T11:26:11;37.60;1.00
21149;DHT22;10732;51.472;6.466;2023-07-08T11:28:37;37.50;1.00
21149;DHT22;10732;51.472;6.466;2023-07-08T11:31:02;36.60;1.00
21149;DHT22;10732;51.472;6.466;2023-07-08T11:33:31;37.10;1.00
21149;DHT22;10732;51.472;6.466;2023-07-08T11:35:59;37.00;1.00
21149;DHT22;10732;51.472;6.466;2023-07-08T11:38:25;37.00;1.00
21149;DHT22;10732;51.472;6.466;2023-07-08T11:40:54;36.20;1.00
21149;DHT22;10732;51.472;6.466;2023-07-08T11:43:23;35.60;1.00
21149;DHT22;10732;51.472;6.466;2023-07-08T11:45:50;35.50;1.00
21149;DHT22;10732;51.472;6.466;2023-07-08T11:48:26;35.60;1.00
21149;DHT22;10732;51.472;6.466;2023-07-08T11:50:52;35.10;1.00
21149;DHT22;10732;51.472;6.466;2023-07-08T11:53:35;34.90;1.00
21149;DHT22;10732;51.472;6.466;2023-07-08T11:58:51;34.50;1.00
21149;DHT22;10732;51.472;6.466;2023-07-08T12:03:51;34.70;1.00
21149;DHT22;10732;51.472;6.466;2023-07-08T12:08:57;35.30;1.00
21149;DHT22;10732;51.472;6.466;2023-07-08T12:11:31;35.10;1.00
21149;DHT22;10732;51.472;6.466;2023-07-08T12:13:59;35.40;1.00
21149;DHT22;10732;51.472;6.466;2023-07-08T12:16:26;35.60;1.00
21149;DHT22;10732;51.472;6.466;2023-07-08T12:18:53;35.10;1.00
21149;DHT22;10732;51.472;6.466;2023-07-08T12:21:23;34.70;1.00
21149;DHT22;10732;51.472;6.466;2023-07-08T12:23:49;34.60;1.00
21149;DHT22;10732;51.472;6.466;2023-07-08T12:26:15;35.00;1.00
21149;DHT22;10732;51.472;6.466;2023-07-08T12:28:42;34.50;1.00
21149;DHT22;10732;51.472;6.466;2023-07-08T12:31:34;34.60;1.00
21149;DHT22;10732;51.472;6.466;2023-07-08T12:34:00;34.80;1.00
21149;DHT22;10732;51.472;6.466;2023-07-08T12:36:28;34.80;1.00
21149;DHT22;10732;51.472;6.466;2023-07-08T12:38:58;34.80;1.00
21149;DHT22;10732;51.472;6.466;2023-07-08T12:41:29;34.80;1.00
21149;DHT22;10732;51.472;6.466;2023-07-08T12:43:55;34.80;1.00
21149;DHT22;10732;51.472;6.466;2023-07-08T12:46:22;34.90;1.00
21149;DHT22;10732;51.472;6.466;2023-07-08T12:48:47;35.00;1.00
21149;DHT22;10732;51.472;6.466;2023-07-08T12:51:16;34.70;1.00
21149;DHT22;10732;51.472;6.466;2023-07-08T12:53:43;34.70;1.00
21149;DHT22;10732;51.472;6.466;2023-07-08T12:56:10;34.80;1.00
21149;DHT22;10732;51.472;6.466;2023-07-08T12:58:45;34.90;1.00
21149;DHT22;10732;51.472;6.466;2023-07-08T13:01:19;35.00;1.00
21149;DHT22;10732;51.472;6.466;2023-07-08T13:03:48;35.10;1.00
21149;DHT22;10732;51.472;6.466;2023-07-08T13:06:17;35.10;1.00
21149;DHT22;10732;51.472;6.466;2023-07-08T13:08:44;34.80;1.00
21149;DHT22;10732;51.472;6.466;2023-07-08T13:11:16;34.80;1.00
21149;DHT22;10732;51.472;6.466;2023-07-08T13:13:56;34.90;1.00
21149;DHT22;10732;51.472;6.466;2023-07-08T13:16:27;34.90;1.00
21149;DHT22;10732;51.472;6.466;2023-07-08T13:18:54;35.10;1.00
21149;DHT22;10732;51.472;6.466;2023-07-08T13:21:20;35.10;1.00
21149;DHT22;10732;51.472;6.466;2023-07-08T13:23:45;35.00;1.00
21149;DHT22;10732;51.472;6.466;2023-07-08T13:26:17;34.90;1.00
21149;DHT22;10732;51.472;6.466;2023-07-08T13:28:43;35.10;1.00
21149;DHT22;10732;51.472;6.466;2023-07-08T13:31:19;35.00;1.00
21149;DHT22;10732;51.472;6.466;2023-07-08T13:33:50;35.00;1.00
21149;DHT22;10732;51.472;6.466;2023-07-08T13:36:20;34.80;1.00
21149;DHT22;10732;51.472;6.466;2023-07-08T13:38:46;34.80;1.00
21149;DHT22;10732;51.472;6.466;2023-07-08T13:41:19;35.00;1.00
21149;DHT22;10732;51.472;6.466;2023-07-08T13:43:46;34.90;1.00
21149;DHT22;10732;51.472;6.466;2023-07-08T13:49:02;34.90;1.00
21149;DHT22;10732;51.472;6.466;2023-07-08T13:51:32;34.90;1.00
21149;DHT22;10732;51.472;6.466;2023-07-08T13:54:00;34.90;1.00
21149;DHT22;10732;51.472;6.466;2023-07-08T13:56:34;34.70;1.00
21149;DHT22;10732;51.472;6.466;2023-07-08T13:59:06;34.90;1.00
21149;DHT22;10732;51.472;6.466;2023-07-08T14:01:34;34.70;1.00
21149;DHT22;10732;51.472;6.466;2023-07-08T14:04:00;34.90;1.00
21149;DHT22;10732;51.472;6.466;2023-07-08T14:06:31;34.80;1.00
21149;DHT22;10732;51.472;6.466;2023-07-08T14:09:07;35.10;1.00
21149;DHT22;10732;51.472;6.466;2023-07-08T14:11:35;34.90;1.00
21149;DHT22;10732;51.472;6.466;2023-07-08T14:14:01;34.80;1.00
21149;DHT22;10732;51.472;6.466;2023-07-08T14:16:29;34.90;1.00
21149;DHT22;10732;51.472;6.466;2023-07-08T14:18:56;34.80;1.00
21149;DHT22;10732;51.472;6.466;2023-07-08T14:21:23;34.70;1.00
21149;DHT22;10732;51.472;6.466;2023-07-08T14:23:48;35.00;1.00
21149;DHT22;10732;51.472;6.466;2023-07-08T14:26:14;35.00;1.00
21149;DHT22;10732;51.472;6.466;2023-07-08T14:28:40;34.80;1.00
21149;DHT22;10732;51.472;6.466;2023-07-08T14:31:14;34.90;1.00
21149;DHT22;10732;51.472;6.466;2023-07-08T14:33:40;34.90;1.00
21149;DHT22;10732;51.472;6.466;2023-07-08T14:36:12;35.00;1.00
21149;DHT22;10732;51.472;6.466;2023-07-08T14:38:39;34.60;1.00
21149;DHT22;10732;51.472;6.466;2023-07-08T14:41:05;34.80;1.00
21149;DHT22;10732;51.472;6.466;2023-07-08T14:43:32;34.80;1.00
21149;DHT22;10732;51.472;6.466;2023-07-08T14:46:02;34.70;1.00
21149;DHT22;10732;51.472;6.466;2023-07-08T14:48:29;34.90;1.00
21149;DHT22;10732;51.472;6.466;2023-07-08T14:50:55;35.10;1.00
21149;DHT22;10732;51.472;6.466;2023-07-08T14:53:20;35.10;1.00
21149;DHT22;10732;51.472;6.466;2023-07-08T14:55:48;35.00;1.00
21149;DHT22;10732;51.472;6.466;2023-07-08T14:58:27;34.80;1.00
21149;DHT22;10732;51.472;6.466;2023-07-08T15:00:59;34.60;1.00
21149;DHT22;10732;51.472;6.466;2023-07-08T15:03:26;34.60;1.00
21149;DHT22;10732;51.472;6.466;2023-07-08T15:05:51;34.40;1.00
21149;DHT22;10732;51.472;6.466;2023-07-08T15:08:17;34.30;1.00
21149;DHT22;10732;51.472;6.466;2023-07-08T15:10:51;34.40;1.00
21149;DHT22;10732;51.472;6.466;2023-07-08T15:13:19;34.60;1.00
21149;DHT22;10732;51.472;6.466;2023-07-08T15:15:45;34.80;1.00
21149;DHT22;10732;51.472;6.466;2023-07-08T15:18:16;34.90;1.00
21149;DHT22;10732;51.472;6.466;2023-07-08T15:20:43;34.80;1.00
21149;DHT22;10732;51.472;6.466;2023-07-08T15:23:11;34.80;1.00
21149;DHT22;10732;51.472;6.466;2023-07-08T15:25:42;34.80;1.00
21149;DHT22;10732;51.472;6.466;2023-07-08T15:28:33;34.50;1.00
21149;DHT22;10732;51.472;6.466;2023-07-08T15:31:01;34.20;1.00
21149;DHT22;10732;51.472;6.466;2023-07-08T15:33:27;34.50;1.00
21149;DHT22;10732;51.472;6.466;2023-07-08T15:35:52;34.70;1.00
21149;DHT22;10732;51.472;6.466;2023-07-08T15:38:18;34.60;1.00
21149;DHT22;10732;51.472;6.466;2023-07-08T15:40:44;34.60;1.00
21149;DHT22;10732;51.472;6.466;2023-07-08T15:43:13;34.70;1.00
21149;DHT22;10732;51.472;6.466;2023-07-08T15:45:39;34.70;1.00
21149;DHT22;10732;51.472;6.466;2023-07-08T15:48:10;34.70;1.00
21149;DHT22;10732;51.472;6.466;2023-07-08T15:50:37;34.80;1.00
21149;DHT22;10732;51.472;6.466;2023-07-08T15:53:02;34.60;1.00
21149;DHT22;10732;51.472;6.466;2023-07-08T15:55:30;34.50;1.00
21149;DHT22;10732;51.472;6.466;2023-07-08T15:58:26;34.40;1.00
21149;DHT22;10732;51.472;6.466;2023-07-08T16:00:52;34.20;1.00
21149;DHT22;10732;51.472;6.466;2023-07-08T16:03:29;34.10;1.00
21149;DHT22;10732;51.472;6.466;2023-07-08T16:05:56;34.10;1.00
21149;DHT22;10732;51.472;6.466;2023-07-08T16:08:22;33.90;1.00
21149;DHT22;10732;51.472;6.466;2023-07-08T16:10:57;33.70;1.00
21149;DHT22;10732;51.472;6.466;2023-07-08T16:13:26;33.60;1.00
21149;DHT22;10732;51.472;6.466;2023-07-08T16:15:53;33.30;1.00
21149;DHT22;10732;51.472;6.466;2023-07-08T16:18:19;33.10;1.00
21149;DHT22;10732;51.472;6.466;2023-07-08T16:20:45;33.10;1.00
21149;DHT22;10732;51.472;6.466;2023-07-08T16:23:10;32.90;1.00
21149;DHT22;10732;51.472;6.466;2023-07-08T16:25:38;32.90;1.00
21149;DHT22;10732;51.472;6.466;2023-07-08T16:28:05;32.80;1.00
21149;DHT22;10732;51.472;6.466;2023-07-08T16:30:31;32.60;1.00
21149;DHT22;10732;51.472;6.466;2023-07-08T16:32:57;32.60;1.00
21149;DHT22;10732;51.472;6.466;2023-07-08T16:35:24;32.60;1.00
21149;DHT22;10732;51.472;6.466;2023-07-08T16:37:52;32.50;1.00
21149;DHT22;10732;51.472;6.466;2023-07-08T16:40:20;32.50;1.00
21149;DHT22;10732;51.472;6.466;2023-07-08T16:42:48;32.60;1.00
21149;DHT22;10732;51.472;6.466;2023-07-08T16:45:16;32.40;1.00
21149;DHT22;10732;51.472;6.466;2023-07-08T16:47:43;32.40;1.00
21149;DHT22;10732;51.472;6.466;2023-07-08T16:50:10;32.30;1.00
21149;DHT22;10732;51.472;6.466;2023-07-08T16:52:36;32.40;1.00
21149;DHT22;10732;51.472;6.466;2023-07-08T16:55:08;32.40;1.00
21149;DHT22;10732;51.472;6.466;2023-07-08T16:57:34;32.40;1.00